sensor_id;sensor_type;location;lat;lon;timestamp;P1;durP1;ratioP1;P2;durP2;ratioP2
53925;SDS011;39836;52.754;6.866;2023-07-13T12:30:02;9.67;;;5.43;;
53925;SDS011;39836;52.754;6.866;2023-07-13T12:32:58;9.48;;;5.95;;
53925;SDS011;39836;52.754;6.866;2023-07-13T12:35:25;12.93;;;5.70;;
53925;SDS011;39836;52.754;6.866;2023-07-13T12:37:54;9.20;;;5.22;;
53925;SDS011;39836;52.754;6.866;2023-07-13T12:40:25;11.75;;;5.53;;
53925;SDS011;39836;52.754;6.866;2023-07-13T12:42:56;9.60;;;5.55;;
53925;SDS011;39836;52.754;6.866;2023-07-13T12:45:23;9.10;;;4.82;;
53925;SDS011;39836;52.754;6.866;2023-07-13T12:47:57;10.73;;;4.60;;
53925;SDS011;39836;52.754;6.866;2023-07-13T12:50:37;7.32;;;4.30;;
53925;SDS011;39836;52.754;6.866;2023-07-13T12:53:06;11.15;;;4.38;;
53925;SDS011;39836;52.754;6.866;2023-07-13T13:00:54;10.80;;;5.68;;
53925;SDS011;39836;52.754;6.866;2023-07-13T13:03:22;11.85;;;5.30;;
53925;SDS011;39836;52.754;6.866;2023-07-13T13:08:33;9.70;;;4.55;;
53925;SDS011;39836;52.754;6.866;2023-07-13T13:11:03;8.02;;;4.25;;
53925;SDS011;39836;52.754;6.866;2023-07-13T13:13:28;9.15;;;4.15;;
53925;SDS011;39836;52.754;6.866;2023-07-13T13:15:54;10.75;;;4.05;;
53925;SDS011;39836;52.754;6.866;2023-07-13T13:18:21;9.05;;;4.03;;
53925;SDS011;39836;52.754;6.866;2023-07-13T13:20:49;10.98;;;4.43;;
53925;SDS011;39836;52.754;6.866;2023-07-13T13:23:16;27.85;;;7.45;;
53925;SDS011;39836;52.754;6.866;2023-07-13T13:25:47;13.80;;;3.70;;
53925;SDS011;39836;52.754;6.866;2023-07-13T13:28:18;4.25;;;1.98;;
53925;SDS011;39836;52.754;6.866;2023-07-13T13:30:45;11.15;;;2.75;;
53925;SDS011;39836;52.754;6.866;2023-07-13T13:33:13;5.13;;;1.77;;
53925;SDS011;39836;52.754;6.866;2023-07-13T13:35:42;5.47;;;1.85;;
53925;SDS011;39836;52.754;6.866;2023-07-13T13:38:19;6.43;;;2.13;;
53925;SDS011;39836;52.754;6.866;2023-07-13T13:40:48;3.97;;;1.42;;
53925;SDS011;39836;52.754;6.866;2023-07-13T13:43:21;6.50;;;1.50;;
53925;SDS011;39836;52.754;6.866;2023-07-13T13:45:52;4.70;;;1.60;;
53925;SDS011;39836;52.754;6.866;2023-07-13T13:48:28;5.78;;;1.60;;
53925;SDS011;39836;52.754;6.866;2023-07-13T13:50:58;4.50;;;1.75;;
53925;SDS011;39836;52.754;6.866;2023-07-13T13:53:25;8.43;;;1.52;;
53925;SDS011;39836;52.754;6.866;2023-07-13T13:55:51;6.13;;;1.98;;
53925;SDS011;39836;52.754;6.866;2023-07-13T13:58:21;6.00;;;2.38;;
53925;SDS011;39836;52.754;6.866;2023-07-13T14:00:47;6.78;;;2.53;;
53925;SDS011;39836;52.754;6.866;2023-07-13T14:03:17;4.30;;;1.73;;
53925;SDS011;39836;52.754;6.866;2023-07-13T14:05:44;5.13;;;1.80;;
53925;SDS011;39836;52.754;6.866;2023-07-13T14:08:18;3.63;;;1.30;;
53925;SDS011;39836;52.754;6.866;2023-07-13T14:10:46;4.03;;;1.20;;
53925;SDS011;39836;52.754;6.866;2023-07-13T14:13:48;4.00;;;1.10;;
53925;SDS011;39836;52.754;6.866;2023-07-13T14:16:11;2.70;;;1.00;;
53925;SDS011;39836;52.754;6.866;2023-07-13T14:18:45;3.08;;;1.02;;
53925;SDS011;39836;52.754;6.866;2023-07-13T14:21:12;7.22;;;1.10;;
53925;SDS011;39836;52.754;6.866;2023-07-13T14:23:39;7.05;;;1.13;;
53925;SDS011;39836;52.754;6.866;2023-07-13T14:26:10;6.18;;;1.40;;
53925;SDS011;39836;52.754;6.866;2023-07-13T14:28:38;5.57;;;1.25;;
53925;SDS011;39836;52.754;6.866;2023-07-13T14:31:10;2.63;;;1.02;;
53925;SDS011;39836;52.754;6.866;2023-07-13T14:33:37;6.40;;;1.27;;
53925;SDS011;39836;52.754;6.866;2023-07-13T14:36:03;5.30;;;1.10;;
53925;SDS011;39836;52.754;6.866;2023-07-13T14:38:54;5.65;;;0.90;;
53925;SDS011;39836;52.754;6.866;2023-07-13T14:41:21;4.70;;;1.10;;
53925;SDS011;39836;52.754;6.866;2023-07-13T14:43:47;3.90;;;1.13;;
53925;SDS011;39836;52.754;6.866;2023-07-13T14:46:29;3.25;;;1.13;;
53925;SDS011;39836;52.754;6.866;2023-07-13T14:49:01;2.70;;;0.90;;
53925;SDS011;39836;52.754;6.866;2023-07-13T14:51:30;4.72;;;1.33;;
53925;SDS011;39836;52.754;6.866;2023-07-13T14:54:00;5.88;;;1.40;;
53925;SDS011;39836;52.754;6.866;2023-07-13T14:56:30;3.53;;;1.13;;
53925;SDS011;39836;52.754;6.866;2023-07-13T14:58:55;4.35;;;1.10;;
53925;SDS011;39836;52.754;6.866;2023-07-13T15:01:21;3.85;;;1.20;;
53925;SDS011;39836;52.754;6.866;2023-07-13T15:03:48;5.97;;;1.20;;
53925;SDS011;39836;52.754;6.866;2023-07-13T15:06:16;2.28;;;0.80;;
53925;SDS011;39836;52.754;6.866;2023-07-13T15:08:44;5.60;;;1.42;;
53925;SDS011;39836;52.754;6.866;2023-07-13T15:11:10;3.38;;;0.90;;
53925;SDS011;39836;52.754;6.866;2023-07-13T15:13:37;4.53;;;1.13;;
53925;SDS011;39836;52.754;6.866;2023-07-13T15:16:04;4.35;;;1.30;;
53925;SDS011;39836;52.754;6.866;2023-07-13T15:18:38;3.63;;;1.33;;
53925;SDS011;39836;52.754;6.866;2023-07-13T15:21:08;2.67;;;1.00;;
53925;SDS011;39836;52.754;6.866;2023-07-13T15:23:39;4.72;;;1.27;;
53925;SDS011;39836;52.754;6.866;2023-07-13T15:26:04;6.00;;;1.55;;
53925;SDS011;39836;52.754;6.866;2023-07-13T15:28:31;4.68;;;1.15;;
53925;SDS011;39836;52.754;6.866;2023-07-13T15:30:57;3.78;;;1.40;;
53925;SDS011;39836;52.754;6.866;2023-07-13T15:33:27;4.35;;;1.13;;
53925;SDS011;39836;52.754;6.866;2023-07-13T15:35:54;3.20;;;1.30;;
53925;SDS011;39836;52.754;6.866;2023-07-13T15:40:56;3.70;;;1.33;;
53925;SDS011;39836;52.754;6.866;2023-07-13T15:43:22;6.05;;;1.20;;
53925;SDS011;39836;52.754;6.866;2023-07-13T15:45:48;6.00;;;1.23;;
53925;SDS011;39836;52.754;6.866;2023-07-13T15:48:17;6.00;;;1.42;;
53925;SDS011;39836;52.754;6.866;2023-07-13T15:50:47;5.72;;;1.20;;
53925;SDS011;39836;52.754;6.866;2023-07-13T15:53:17;4.25;;;1.10;;
53925;SDS011;39836;52.754;6.866;2023-07-13T15:55:54;5.47;;;1.48;;
53925;SDS011;39836;52.754;6.866;2023-07-13T15:58:20;3.88;;;1.30;;
53925;SDS011;39836;52.754;6.866;2023-07-13T16:00:46;4.15;;;1.50;;
53925;SDS011;39836;52.754;6.866;2023-07-13T16:03:16;5.45;;;1.33;;
53925;SDS011;39836;52.754;6.866;2023-07-13T16:05:45;4.32;;;1.20;;
53925;SDS011;39836;52.754;6.866;2023-07-13T16:08:19;5.78;;;1.58;;
53925;SDS011;39836;52.754;6.866;2023-07-13T16:10:50;7.93;;;1.50;;
53925;SDS011;39836;52.754;6.866;2023-07-13T16:13:16;5.05;;;1.60;;
53925;SDS011;39836;52.754;6.866;2023-07-13T16:15:46;7.57;;;2.03;;
53925;SDS011;39836;52.754;6.866;2023-07-13T16:18:13;3.15;;;1.20;;
53925;SDS011;39836;52.754;6.866;2023-07-13T16:20:44;4.55;;;1.50;;
53925;SDS011;39836;52.754;6.866;2023-07-13T16:23:12;6.65;;;1.92;;
53925;SDS011;39836;52.754;6.866;2023-07-13T16:25:39;3.90;;;1.67;;
53925;SDS011;39836;52.754;6.866;2023-07-13T16:28:05;6.57;;;1.90;;
53925;SDS011;39836;52.754;6.866;2023-07-13T16:30:31;7.97;;;1.70;;
53925;SDS011;39836;52.754;6.866;2023-07-13T16:33:02;3.28;;;1.40;;
53925;SDS011;39836;52.754;6.866;2023-07-13T16:35:38;7.60;;;1.90;;
53925;SDS011;39836;52.754;6.866;2023-07-13T16:38:15;3.45;;;1.67;;
53925;SDS011;39836;52.754;6.866;2023-07-13T16:40:42;5.30;;;1.55;;
53925;SDS011;39836;52.754;6.866;2023-07-13T16:43:11;4.75;;;1.60;;
53925;SDS011;39836;52.754;6.866;2023-07-13T16:45:39;6.45;;;1.60;;
53925;SDS011;39836;52.754;6.866;2023-07-13T16:48:15;5.20;;;1.70;;
53925;SDS011;39836;52.754;6.866;2023-07-13T16:50:44;5.88;;;2.10;;
53925;SDS011;39836;52.754;6.866;2023-07-13T16:53:24;7.25;;;1.83;;
53925;SDS011;39836;52.754;6.866;2023-07-13T16:55:53;5.70;;;2.33;;
53925;SDS011;39836;52.754;6.866;2023-07-13T16:58:21;9.32;;;2.75;;
53925;SDS011;39836;52.754;6.866;2023-07-13T17:00:50;4.70;;;1.65;;
53925;SDS011;39836;52.754;6.866;2023-07-13T17:03:17;6.90;;;2.17;;
53925;SDS011;39836;52.754;6.866;2023-07-13T17:05:43;5.97;;;1.83;;
53925;SDS011;39836;52.754;6.866;2023-07-13T17:08:12;8.27;;;1.83;;
53925;SDS011;39836;52.754;6.866;2023-07-13T17:10:39;5.25;;;2.05;;
53925;SDS011;39836;52.754;6.866;2023-07-13T17:13:09;5.28;;;1.70;;
53925;SDS011;39836;52.754;6.866;2023-07-13T17:15:36;5.20;;;2.42;;
53925;SDS011;39836;52.754;6.866;2023-07-13T17:18:03;4.63;;;2.10;;
53925;SDS011;39836;52.754;6.866;2023-07-13T17:20:36;6.60;;;1.90;;
53925;SDS011;39836;52.754;6.866;2023-07-13T17:23:17;7.95;;;2.40;;
53925;SDS011;39836;52.754;6.866;2023-07-13T17:25:45;5.90;;;2.10;;
53925;SDS011;39836;52.754;6.866;2023-07-13T17:28:12;5.70;;;1.90;;
53925;SDS011;39836;52.754;6.866;2023-07-13T17:30:39;6.13;;;2.28;;
53925;SDS011;39836;52.754;6.866;2023-07-13T17:33:23;6.05;;;2.08;;
53925;SDS011;39836;52.754;6.866;2023-07-13T17:35:56;7.57;;;2.75;;
53925;SDS011;39836;52.754;6.866;2023-07-13T17:38:24;7.70;;;1.95;;
53925;SDS011;39836;52.754;6.866;2023-07-13T17:40:55;4.85;;;1.95;;
53925;SDS011;39836;52.754;6.866;2023-07-13T17:43:21;5.18;;;2.00;;
53925;SDS011;39836;52.754;6.866;2023-07-13T17:45:56;5.32;;;2.15;;
53925;SDS011;39836;52.754;6.866;2023-07-13T17:48:28;5.15;;;2.13;;
53925;SDS011;39836;52.754;6.866;2023-07-13T17:50:54;10.38;;;2.33;;
53925;SDS011;39836;52.754;6.866;2023-07-13T17:53:21;6.75;;;1.95;;
53925;SDS011;39836;52.754;6.866;2023-07-13T17:55:50;6.75;;;2.10;;
53925;SDS011;39836;52.754;6.866;2023-07-13T20:53:26;13.90;;;5.97;;
53925;SDS011;39836;52.754;6.866;2023-07-13T20:55:53;7.72;;;5.75;;
53925;SDS011;39836;52.754;6.866;2023-07-13T20:58:19;8.65;;;5.60;;
53925;SDS011;39836;52.754;6.866;2023-07-13T21:00:45;11.40;;;5.60;;
53925;SDS011;39836;52.754;6.866;2023-07-13T21:03:24;10.38;;;6.45;;
